createdAt,value
2022-10-02T00:00:58.585Z,98924.83
2022-10-02T00:02:04.105Z,98914.25
2022-10-02T00:03:09.613Z,98913.43
2022-10-02T00:04:15.152Z,98908.00
2022-10-02T00:05:24.311Z,98912.05
2022-10-02T00:06:29.931Z,98909.83
2022-10-02T00:07:41.942Z,98913.75
2022-10-02T00:08:46.333Z,98913.09
2022-10-02T00:09:54.852Z,98905.97
2022-10-02T00:11:12.164Z,98908.12
2022-10-02T00:12:17.648Z,98907.52
2022-10-02T00:13:49.283Z,98913.24
2022-10-02T00:14:54.851Z,98910.96
2022-10-02T00:15:58.259Z,98913.09
2022-10-02T00:17:02.301Z,98913.09
2022-10-02T00:18:10.720Z,98902.14
2022-10-02T00:19:16.186Z,98913.42
2022-10-02T00:20:23.302Z,98910.80
2022-10-02T00:21:34.679Z,98910.59
2022-10-02T00:22:55.239Z,98910.69
2022-10-02T00:24:00.677Z,98913.75
2022-10-02T00:25:24.553Z,98919.89
2022-10-02T00:28:04.333Z,98915.42
2022-10-02T00:29:24.849Z,98896.69
2022-10-02T00:30:30.066Z,98894.40
2022-10-02T00:31:44.944Z,98887.53
2022-10-02T00:33:08.389Z,98876.83
2022-10-02T00:34:33.603Z,98877.07
2022-10-02T00:35:39.177Z,98866.61
2022-10-02T00:36:47.844Z,98867.43
2022-10-02T00:38:14.844Z,98866.61
2022-10-02T00:39:38.076Z,98865.42
2022-10-02T00:40:49.865Z,98859.95
2022-10-02T00:42:10.870Z,98845.45
2022-10-02T00:43:22.273Z,98846.27
2022-10-02T00:44:27.794Z,98840.95
2022-10-02T00:45:36.832Z,98834.87
2022-10-02T00:47:07.126Z,98832.38
2022-10-02T00:48:24.566Z,98835.45
2022-10-02T00:49:30.065Z,98835.23
2022-10-02T00:50:54.033Z,98820.22
2022-10-02T00:52:15.139Z,98825.90
2022-10-02T00:53:23.617Z,98825.90
2022-10-02T00:54:29.234Z,98823.41
2022-10-02T00:55:44.273Z,98816.14
2022-10-02T00:57:02.520Z,98809.97
2022-10-02T00:58:13.622Z,98813.77
2022-10-02T00:59:30.949Z,98809.27
2022-10-02T01:00:33.083Z,98806.30
2022-10-02T01:01:47.574Z,98802.65
2022-10-02T01:03:11.266Z,98791.46
2022-10-02T01:04:16.782Z,98785.50
2022-10-02T01:05:20.025Z,98784.56
2022-10-02T01:06:25.749Z,98772.31
2022-10-02T01:07:28.778Z,98765.08
2022-10-02T01:08:31.421Z,98775.44
2022-10-02T01:09:33.864Z,98772.09
2022-10-02T01:10:38.902Z,98764.13
2022-10-02T01:11:41.131Z,98771.64
2022-10-02T01:12:44.713Z,98775.20
2022-10-02T01:13:47.699Z,98768.91
2022-10-02T01:14:49.736Z,98769.29
2022-10-02T01:15:55.931Z,98766.09
2022-10-02T01:16:58.111Z,98768.83
2022-10-02T01:18:00.747Z,98785.80
2022-10-02T01:19:02.973Z,98777.02
2022-10-02T01:20:08.797Z,98777.02
2022-10-02T01:21:14.391Z,98776.55
2022-10-02T01:22:38.303Z,98776.80
2022-10-02T01:25:00.785Z,98776.47
2022-10-02T01:26:03.776Z,98768.23
2022-10-02T01:27:05.797Z,98774.52
2022-10-02T01:28:08.077Z,98774.64
2022-10-02T01:29:09.901Z,98771.30
2022-10-02T01:30:15.659Z,98766.75
2022-10-02T01:31:18.005Z,98764.26
2022-10-02T01:32:20.692Z,98770.55
2022-10-02T01:33:23.401Z,98766.05
2022-10-02T01:34:26.249Z,98766.05
2022-10-02T01:35:31.176Z,98762.23
2022-10-02T01:36:34.149Z,98755.33
2022-10-02T01:37:41.318Z,98756.48
2022-10-02T01:38:45.854Z,98761.71
2022-10-02T01:39:48.338Z,98755.88
2022-10-02T01:40:50.529Z,98761.47
2022-10-02T01:41:52.938Z,98757.88
2022-10-02T01:43:07.853Z,98756.12
2022-10-02T01:44:11.289Z,98747.67
2022-10-02T01:45:13.907Z,98745.27
2022-10-02T01:46:40.615Z,98748.61
2022-10-02T01:47:46.301Z,98742.11
2022-10-02T01:49:06.854Z,98732.72
2022-10-02T01:50:25.223Z,98727.10
2022-10-02T01:51:30.808Z,98724.36
2022-10-02T01:52:42.534Z,98722.91
2022-10-02T01:53:48.155Z,98729.86
2022-10-02T01:54:56.510Z,98717.86
2022-10-02T01:56:20.698Z,98717.13
2022-10-02T01:57:50.938Z,98720.30
2022-10-02T01:59:08.300Z,98710.33
2022-10-02T02:00:19.100Z,98698.70
2022-10-02T02:01:28.706Z,98700.83
2022-10-02T02:02:47.707Z,98691.80
2022-10-02T02:04:25.343Z,98692.53
2022-10-02T02:05:43.413Z,98690.16
2022-10-02T02:07:01.324Z,98692.26
2022-10-02T02:08:19.275Z,98689.43
2022-10-02T02:09:33.648Z,98685.15
2022-10-02T02:10:42.319Z,98671.75
2022-10-02T02:11:59.928Z,98671.75
2022-10-02T02:13:05.452Z,98679.95
2022-10-02T02:14:10.963Z,98671.41
2022-10-02T02:15:28.842Z,98676.39
2022-10-02T02:16:44.660Z,98677.94
2022-10-02T02:17:56.004Z,98666.66
2022-10-02T02:19:01.468Z,98666.87
2022-10-02T02:20:10.497Z,98665.45
2022-10-02T02:21:21.958Z,98660.50
2022-10-02T02:23:39.110Z,98646.02
2022-10-02T02:24:44.950Z,98639.84
2022-10-02T02:25:50.629Z,98636.51
2022-10-02T02:26:55.997Z,98625.32
2022-10-02T02:28:04.688Z,98624.72
2022-10-02T02:29:08.786Z,98628.61
2022-10-02T02:30:13.915Z,98614.56
2022-10-02T02:31:19.595Z,98613.11
2022-10-02T02:32:25.158Z,98620.25
2022-10-02T02:33:40.117Z,98620.25
2022-10-02T02:34:45.588Z,98618.67
2022-10-02T02:35:57.264Z,98612.23
2022-10-02T02:37:02.922Z,98612.61
2022-10-02T02:38:08.416Z,98612.48
2022-10-02T02:39:13.893Z,98614.03
2022-10-02T02:40:19.720Z,98611.42
2022-10-02T02:41:28.806Z,98609.53
2022-10-02T02:42:34.038Z,98611.08
2022-10-02T02:43:56.398Z,98597.91
2022-10-02T02:45:05.247Z,98591.01
2022-10-02T02:46:11.304Z,98584.36
2022-10-02T02:47:26.123Z,98590.98
2022-10-02T02:48:40.733Z,98581.88
2022-10-02T02:49:52.294Z,98587.91
2022-10-02T02:51:00.745Z,98580.33
2022-10-02T02:52:06.333Z,98575.80
2022-10-02T02:53:17.553Z,98573.92
2022-10-02T02:54:23.098Z,98577.01
2022-10-02T02:55:28.753Z,98576.27
2022-10-02T02:56:32.611Z,98567.48
2022-10-02T02:57:38.284Z,98562.99
2022-10-02T02:59:58.278Z,98561.13
2022-10-02T03:01:00.570Z,98561.80
2022-10-02T03:02:03.036Z,98554.45
2022-10-02T03:03:05.642Z,98552.56
2022-10-02T03:04:11.206Z,98550.42
2022-10-02T03:05:16.756Z,98544.98
2022-10-02T03:06:22.856Z,98539.98
2022-10-02T03:07:25.153Z,98535.00
2022-10-02T03:08:30.674Z,98528.72
2022-10-02T03:09:32.929Z,98529.28
2022-10-02T03:10:41.359Z,98521.44
2022-10-02T03:11:46.984Z,98527.86
2022-10-02T03:12:55.466Z,98523.49
2022-10-02T03:14:04.532Z,98522.64
2022-10-02T03:15:28.713Z,98519.81
2022-10-02T03:16:46.434Z,98523.02
2022-10-02T03:17:54.736Z,98508.89
2022-10-02T03:19:03.439Z,98508.42
2022-10-02T03:20:12.137Z,98507.70
2022-10-02T03:21:23.830Z,98504.61
2022-10-02T03:22:59.446Z,98508.77
2022-10-02T03:24:07.702Z,98495.02
2022-10-02T03:25:22.438Z,98492.77
2022-10-02T03:26:43.527Z,98486.20
2022-10-02T03:28:10.549Z,98485.78
2022-10-02T03:29:28.192Z,98487.05
2022-10-02T03:30:31.450Z,98483.24
2022-10-02T03:31:35.604Z,98484.19
2022-10-02T03:32:40.319Z,98480.62
2022-10-02T03:33:44.446Z,98489.06
2022-10-02T03:34:48.535Z,98477.08
2022-10-02T03:35:50.963Z,98476.72
2022-10-02T03:36:53.245Z,98480.78
2022-10-02T03:37:58.835Z,98489.34
2022-10-02T03:39:24.279Z,98497.05
2022-10-02T03:40:09.347Z,98508.81
2022-10-02T03:41:11.383Z,98501.32
2022-10-02T03:42:14.691Z,98504.39
2022-10-02T03:43:20.192Z,98500.70
2022-10-02T03:44:22.281Z,98503.77
2022-10-02T03:45:49.506Z,98503.41
2022-10-02T03:46:29.399Z,98493.81
2022-10-02T03:47:31.865Z,98489.66
2022-10-02T03:48:33.671Z,98473.27
2022-10-02T03:49:35.703Z,98469.98
2022-10-02T03:50:37.632Z,98475.19
2022-10-02T03:51:40.882Z,98478.05
2022-10-02T03:52:43.097Z,98471.52
2022-10-02T03:53:44.886Z,98464.98
2022-10-02T03:54:50.319Z,98472.59
2022-10-02T03:55:55.888Z,98473.63
2022-10-02T03:57:01.468Z,98478.27
2022-10-02T03:58:07.064Z,98480.67
2022-10-02T03:59:18.472Z,98505.47
2022-10-02T04:00:30.028Z,98520.58
2022-10-02T04:01:35.767Z,98525.55
2022-10-02T04:02:41.427Z,98523.19
2022-10-02T04:03:47.011Z,98515.81
2022-10-02T04:04:52.613Z,98516.77
2022-10-02T04:05:58.110Z,98516.88
2022-10-02T04:07:03.692Z,98521.26
2022-10-02T04:08:27.705Z,98517.46
2022-10-02T04:10:50.569Z,98496.48
2022-10-02T04:12:05.085Z,98484.61
2022-10-02T04:13:13.872Z,98469.73
2022-10-02T04:14:22.463Z,98455.84
2022-10-02T04:15:44.566Z,98458.69
2022-10-02T04:16:58.972Z,98458.95
2022-10-02T04:18:07.565Z,98455.95
2022-10-02T04:19:28.159Z,98461.17
2022-10-02T04:20:39.560Z,98458.69
2022-10-02T04:21:45.159Z,98456.58
2022-10-02T04:22:53.757Z,98452.30
2022-10-02T04:23:59.270Z,98445.75
2022-10-02T04:25:17.882Z,98440.66
2022-10-02T04:26:30.167Z,98436.73
2022-10-02T04:28:54.860Z,98420.68
2022-10-02T04:30:03.162Z,98425.92
2022-10-02T04:31:08.964Z,98423.58
2022-10-02T04:32:16.536Z,98425.97
2022-10-02T04:33:21.221Z,98435.61
2022-10-02T04:34:23.159Z,98425.24
2022-10-02T04:35:28.870Z,98432.45
2022-10-02T04:36:38.550Z,98421.77
2022-10-02T04:37:54.524Z,98420.09
2022-10-02T04:39:12.326Z,98407.63
2022-10-02T04:40:20.832Z,98400.78
2022-10-02T04:41:46.236Z,98393.20
2022-10-02T04:43:08.604Z,98399.33
2022-10-02T04:44:40.221Z,98390.63
2022-10-02T04:45:49.075Z,98386.54
2022-10-02T04:47:00.795Z,98391.09
2022-10-02T04:48:15.485Z,98388.73
2022-10-02T04:49:21.021Z,98381.22
2022-10-02T04:50:49.534Z,98389.69
2022-10-02T04:51:58.050Z,98381.03
2022-10-02T04:53:09.855Z,98386.84
2022-10-02T04:54:21.405Z,98384.23
2022-10-02T04:55:42.287Z,98375.67
2022-10-02T04:57:00.067Z,98381.29
2022-10-02T04:58:20.776Z,98378.78
2022-10-02T04:59:29.460Z,98372.80
2022-10-02T05:00:37.971Z,98373.28
2022-10-02T05:01:59.071Z,98369.91
2022-10-02T05:03:08.180Z,98370.36
2022-10-02T05:05:29.928Z,98359.82
2022-10-02T05:06:39.570Z,98360.31
2022-10-02T05:08:11.549Z,98367.06
2022-10-02T05:09:17.265Z,98364.39
2022-10-02T05:10:46.107Z,98367.67
2022-10-02T05:12:24.671Z,98357.15
2022-10-02T05:13:40.023Z,98349.97
2022-10-02T05:14:57.466Z,98357.55
2022-10-02T05:16:09.241Z,98348.23
2022-10-02T05:17:31.691Z,98347.47
2022-10-02T05:18:43.168Z,98346.67
2022-10-02T05:20:10.404Z,98340.11
2022-10-02T05:21:35.941Z,98337.34
2022-10-02T05:22:47.510Z,98327.80
2022-10-02T05:23:59.689Z,98324.66
2022-10-02T05:25:07.927Z,98321.08
2022-10-02T05:26:34.079Z,98311.77
2022-10-02T05:29:16.005Z,98304.06
2022-10-02T05:30:19.271Z,98297.66
2022-10-02T05:31:27.549Z,98300.66
2022-10-02T05:32:45.249Z,98306.47
2022-10-02T05:34:09.260Z,98299.84
2022-10-02T05:35:18.552Z,98297.14
2022-10-02T05:36:36.589Z,98300.49
2022-10-02T05:37:51.714Z,98289.73
2022-10-02T05:39:08.895Z,98288.64
2022-10-02T05:40:20.639Z,98283.72
2022-10-02T05:41:29.453Z,98292.14
2022-10-02T05:42:42.901Z,98284.57
2022-10-02T05:43:48.867Z,98287.64
2022-10-02T05:44:54.111Z,98293.69
2022-10-02T05:46:02.334Z,98291.47
2022-10-02T05:47:11.484Z,98289.02
2022-10-02T05:49:55.917Z,98284.63
2022-10-02T05:51:01.503Z,98292.56
2022-10-02T05:53:43.163Z,98294.39
2022-10-02T05:54:54.717Z,98293.13
2022-10-02T05:56:06.011Z,98293.84
2022-10-02T05:57:23.686Z,98281.86
2022-10-02T05:58:45.209Z,98288.48
2022-10-02T06:00:02.673Z,98285.44
2022-10-02T06:01:18.938Z,98280.45
2022-10-02T06:02:27.632Z,98276.88
2022-10-02T06:03:39.419Z,98276.04
2022-10-02T06:04:45.110Z,98275.50
2022-10-02T06:05:53.960Z,98267.25
2022-10-02T06:06:59.566Z,98277.42
2022-10-02T06:08:05.312Z,98272.72
2022-10-02T06:10:47.500Z,98269.73
2022-10-02T06:11:58.904Z,98262.95
2022-10-02T06:13:07.401Z,98267.48
2022-10-02T06:14:41.729Z,98260.33
2022-10-02T06:15:53.494Z,98265.00
2022-10-02T06:16:59.130Z,98260.50
2022-10-02T06:18:07.773Z,98261.70
2022-10-02T06:19:13.480Z,98256.75
2022-10-02T06:20:38.904Z,98250.67
2022-10-02T06:21:51.371Z,98255.77
2022-10-02T06:23:12.085Z,98261.70
2022-10-02T06:24:27.172Z,98260.05
2022-10-02T06:26:53.115Z,98249.75
2022-10-02T06:27:58.680Z,98245.45
2022-10-02T06:29:07.274Z,98241.17
2022-10-02T06:30:13.602Z,98251.62
2022-10-02T06:31:39.134Z,98243.50
2022-10-02T06:32:53.855Z,98240.73
2022-10-02T06:33:57.122Z,98242.00
2022-10-02T06:34:59.530Z,98238.14
2022-10-02T06:36:28.460Z,98234.96
2022-10-02T06:37:50.847Z,98234.96
2022-10-02T06:39:05.649Z,98228.60
2022-10-02T06:40:21.092Z,98228.58
2022-10-02T06:41:27.763Z,98229.54
2022-10-02T06:42:35.174Z,98226.67
2022-10-02T06:43:59.917Z,98216.76
2022-10-02T06:45:08.477Z,98216.08
2022-10-02T06:46:43.215Z,98210.05
2022-10-02T06:48:26.902Z,98218.45
2022-10-02T06:49:51.214Z,98211.57
2022-10-02T06:51:08.955Z,98211.72
2022-10-02T06:52:20.669Z,98206.08
2022-10-02T06:53:52.800Z,98215.44
2022-10-02T06:55:14.823Z,98208.80
2022-10-02T06:56:30.351Z,98209.09
2022-10-02T06:57:42.283Z,98204.95
2022-10-02T06:59:09.378Z,98202.05
2022-10-02T07:00:14.089Z,98197.36
2022-10-02T07:01:38.528Z,98200.28
2022-10-02T07:03:02.670Z,98196.14
2022-10-02T07:04:16.743Z,98200.55
2022-10-02T07:05:44.295Z,98197.65
2022-10-02T07:07:16.170Z,98204.64
2022-10-02T07:08:31.223Z,98196.63
2022-10-02T07:10:05.061Z,98202.82
2022-10-02T07:11:19.819Z,98188.90
2022-10-02T07:12:55.085Z,98181.77
2022-10-02T07:14:25.794Z,98178.05
2022-10-02T07:15:37.687Z,98185.33
2022-10-02T07:16:49.447Z,98184.70
2022-10-02T07:18:16.632Z,98180.85
2022-10-02T07:19:38.843Z,98181.39
2022-10-02T07:20:47.485Z,98175.91
2022-10-02T07:22:39.611Z,98180.31
2022-10-02T07:23:24.973Z,98170.18
2022-10-02T07:24:45.867Z,98168.94
2022-10-02T07:25:51.989Z,98164.26
2022-10-02T07:27:00.293Z,98156.96
2022-10-02T07:28:05.935Z,98163.30
2022-10-02T07:29:14.831Z,98155.45
2022-10-02T07:30:18.627Z,98163.60
2022-10-02T07:31:45.024Z,98164.02
2022-10-02T07:32:50.737Z,98159.18
2022-10-02T07:34:02.165Z,98159.44
2022-10-02T07:35:30.539Z,98164.13
2022-10-02T07:36:48.895Z,98157.36
2022-10-02T07:37:57.255Z,98159.17
2022-10-02T07:39:37.865Z,98163.56
2022-10-02T07:40:55.121Z,98162.44
2022-10-02T07:42:12.818Z,98166.05
2022-10-02T07:43:21.607Z,98162.95
2022-10-02T07:44:35.731Z,98168.72
2022-10-02T07:45:43.998Z,98161.27
2022-10-02T07:47:09.696Z,98156.09
2022-10-02T07:48:21.027Z,98157.48
2022-10-02T07:49:33.212Z,98151.90
2022-10-02T07:50:51.126Z,98158.80
2022-10-02T07:52:00.179Z,98163.44
2022-10-02T07:53:14.883Z,98165.15
2022-10-02T07:54:26.531Z,98168.05
2022-10-02T07:55:29.665Z,98167.34
2022-10-02T07:56:34.320Z,98162.91
2022-10-02T07:58:04.398Z,98164.00
2022-10-02T07:59:12.669Z,98166.34
2022-10-02T08:00:17.748Z,98155.34
2022-10-02T08:02:46.683Z,98148.83
2022-10-02T08:03:58.540Z,98143.38
2022-10-02T08:05:10.382Z,98149.98
2022-10-02T08:06:13.772Z,98146.00
2022-10-02T08:07:15.701Z,98142.23
2022-10-02T08:08:33.115Z,98142.23
2022-10-02T08:10:51.569Z,98133.70
2022-10-02T08:12:11.293Z,98128.23
2022-10-02T08:13:20.720Z,98127.07
2022-10-02T08:14:29.555Z,98127.98
2022-10-02T08:15:35.073Z,98131.55
2022-10-02T08:16:49.920Z,98129.73
2022-10-02T08:18:22.885Z,98114.11
2022-10-02T08:19:18.841Z,98110.82
2022-10-02T08:20:31.493Z,98103.66
2022-10-02T08:21:37.719Z,98109.67
2022-10-02T08:22:49.212Z,98093.53
2022-10-02T08:23:57.744Z,98098.02
2022-10-02T08:25:03.311Z,98094.06
2022-10-02T08:26:15.087Z,98091.63
2022-10-02T08:27:20.718Z,98102.98
2022-10-02T08:28:39.302Z,98096.94
2022-10-02T08:29:48.858Z,98102.08
2022-10-02T08:30:51.851Z,98098.43
2022-10-02T08:31:55.916Z,98093.30
2022-10-02T08:32:58.545Z,98094.18
2022-10-02T08:34:13.632Z,98096.28
2022-10-02T08:35:17.931Z,98090.53
2022-10-02T08:36:35.612Z,98091.91
2022-10-02T08:37:47.292Z,98092.16
2022-10-02T08:38:55.902Z,98091.34
2022-10-02T08:40:23.162Z,98084.69
2022-10-02T08:41:38.263Z,98084.46
2022-10-02T08:42:50.914Z,98080.24
2022-10-02T08:44:09.771Z,98086.41
2022-10-02T08:45:27.148Z,98082.13
2022-10-02T08:46:36.124Z,98072.63
2022-10-02T08:48:15.590Z,98080.44
2022-10-02T08:49:54.007Z,98075.80
2022-10-02T08:51:28.338Z,98085.59
2022-10-02T08:52:56.857Z,98078.72
2022-10-02T08:54:17.338Z,98074.65
2022-10-02T08:55:50.737Z,98076.09
2022-10-02T08:57:33.661Z,98060.06
2022-10-02T08:59:00.690Z,98063.67
2022-10-02T09:01:34.216Z,98070.69
2022-10-02T09:03:15.259Z,98075.13
2022-10-02T09:04:55.749Z,98066.27
2022-10-02T09:06:10.563Z,98075.40
2022-10-02T09:07:51.234Z,98077.05
2022-10-02T09:09:05.900Z,98076.91
2022-10-02T09:10:36.730Z,98069.88
2022-10-02T09:12:09.125Z,98073.70
2022-10-02T09:13:43.214Z,98069.30
2022-10-02T09:14:58.813Z,98057.31
2022-10-02T09:16:30.502Z,98062.02
2022-10-02T09:17:45.212Z,98057.36
2022-10-02T09:19:19.901Z,98052.84
2022-10-02T09:20:37.946Z,98056.13
2022-10-02T09:22:00.511Z,98052.72
2022-10-02T09:23:39.130Z,98049.15
2022-10-02T09:24:44.744Z,98058.66
2022-10-02T09:25:58.912Z,98063.67
2022-10-02T09:27:38.315Z,98054.77
2022-10-02T09:28:56.283Z,98060.45
2022-10-02T09:30:25.056Z,98066.24
2022-10-02T09:31:42.668Z,98054.00
2022-10-02T09:33:16.029Z,98052.52
2022-10-02T09:34:36.814Z,98061.59
2022-10-02T09:35:52.393Z,98069.45
2022-10-02T09:37:14.724Z,98067.52
2022-10-02T09:38:39.276Z,98064.73
2022-10-02T09:39:51.162Z,98062.38
2022-10-02T09:41:13.409Z,98070.06
2022-10-02T09:42:44.422Z,98067.96
2022-10-02T09:44:22.728Z,98057.05
2022-10-02T09:45:57.404Z,98066.55
2022-10-02T09:47:03.148Z,98063.38
2022-10-02T09:48:33.640Z,98064.64
2022-10-02T09:49:57.554Z,98068.50
2022-10-02T09:51:20.032Z,98065.18
2022-10-02T09:52:44.730Z,98063.83
2022-10-02T09:54:07.359Z,98066.81
2022-10-02T09:55:24.680Z,98061.35
2022-10-02T09:57:53.038Z,98059.28
2022-10-02T09:59:19.291Z,98063.20
2022-10-02T10:00:52.243Z,98070.09
2022-10-02T10:02:10.473Z,98085.39
2022-10-02T10:03:34.984Z,98060.75
2022-10-02T10:05:06.029Z,98069.28
2022-10-02T10:06:29.058Z,98073.43
2022-10-02T10:07:51.152Z,98058.47
2022-10-02T10:09:12.453Z,98063.26
2022-10-02T10:10:40.708Z,98076.33
2022-10-02T10:11:52.685Z,98079.46
2022-10-02T10:13:22.827Z,98066.41
2022-10-02T10:14:37.700Z,98074.82
2022-10-02T10:16:09.452Z,98070.70
2022-10-02T10:17:51.315Z,98060.16
2022-10-02T10:19:12.299Z,98077.84
2022-10-02T10:20:24.000Z,98072.06
2022-10-02T10:21:52.627Z,98066.72
2022-10-02T10:23:04.755Z,98075.09
2022-10-02T10:24:42.520Z,98083.95
2022-10-02T10:26:04.816Z,98066.30
2022-10-02T10:27:22.591Z,98053.89
2022-10-02T10:28:49.338Z,98064.11
2022-10-02T10:30:15.069Z,98074.70
2022-10-02T10:31:29.812Z,98065.63
2022-10-02T10:32:48.282Z,98070.86
2022-10-02T10:34:23.025Z,98069.31
2022-10-02T10:36:02.093Z,98079.27
2022-10-02T10:37:07.585Z,98051.42
2022-10-02T10:38:47.054Z,98071.13
2022-10-02T10:40:05.786Z,98076.91
2022-10-02T10:41:40.535Z,98070.44
2022-10-02T10:43:06.417Z,98073.72
2022-10-02T10:44:09.942Z,98068.23
2022-10-02T10:45:44.792Z,98084.50
2022-10-02T10:47:11.455Z,98073.48
2022-10-02T10:48:32.269Z,98070.72
2022-10-02T10:50:11.651Z,98078.56
2022-10-02T10:51:35.215Z,98070.72
2022-10-02T10:53:01.284Z,98093.02
2022-10-02T10:54:16.251Z,98080.34
2022-10-02T10:55:31.236Z,98075.40
2022-10-02T10:56:37.442Z,98071.53
2022-10-02T10:57:59.808Z,98070.72
2022-10-02T10:59:15.166Z,98071.27
2022-10-02T11:00:26.007Z,98071.81
2022-10-02T11:01:43.917Z,98064.92
2022-10-02T11:03:08.635Z,98063.00
2022-10-02T11:04:48.999Z,98080.58
2022-10-02T11:06:28.404Z,98073.16
2022-10-02T11:07:52.304Z,98061.34
2022-10-02T11:09:15.132Z,98070.98
2022-10-02T11:10:33.600Z,98070.69
2022-10-02T11:13:22.649Z,98065.04
2022-10-02T11:14:46.965Z,98070.13
2022-10-02T11:16:11.046Z,98067.95
2022-10-02T11:17:22.576Z,98066.98
2022-10-02T11:18:28.069Z,98064.91
2022-10-02T11:19:39.891Z,98062.42
2022-10-02T11:20:51.593Z,98061.03
2022-10-02T11:22:11.929Z,98053.34
2022-10-02T11:23:22.929Z,98055.39
2022-10-02T11:26:15.762Z,98069.59
2022-10-02T11:27:38.866Z,98063.13
2022-10-02T11:29:07.205Z,98071.30
2022-10-02T11:30:16.253Z,98096.13
2022-10-02T11:31:39.752Z,98077.23
2022-10-02T11:32:45.833Z,98083.33
2022-10-02T11:34:11.197Z,98087.87
2022-10-02T11:35:28.386Z,98122.62
2022-10-02T11:36:48.688Z,98089.49
2022-10-02T11:38:05.635Z,98093.31
2022-10-02T11:39:20.621Z,98101.17
2022-10-02T11:40:46.120Z,98121.16
2022-10-02T11:42:07.173Z,98070.13
2022-10-02T11:43:27.936Z,98092.90
2022-10-02T11:44:37.209Z,98088.02
2022-10-02T11:45:43.042Z,98088.20
2022-10-02T11:47:04.115Z,98072.44
2022-10-02T11:48:13.023Z,98075.86
2022-10-02T11:49:41.781Z,98090.81
2022-10-02T11:51:15.539Z,98077.58
2022-10-02T11:52:21.016Z,98087.74
2022-10-02T11:53:47.914Z,98083.02
2022-10-02T11:54:56.138Z,98094.13
2022-10-02T11:56:14.667Z,98091.56
2022-10-02T11:57:22.986Z,98091.60
2022-10-02T11:58:54.689Z,98104.86
2022-10-02T12:00:12.215Z,98087.91
2022-10-02T12:01:23.402Z,98075.69
2022-10-02T12:02:35.526Z,98081.39
2022-10-02T12:03:50.515Z,98089.90
2022-10-02T12:05:16.845Z,98103.80
2022-10-02T12:06:23.423Z,98100.63
2022-10-02T12:07:44.481Z,98102.66
2022-10-02T12:09:17.624Z,98096.50
2022-10-02T12:10:23.324Z,98113.45
2022-10-02T12:11:40.951Z,98096.23
2022-10-02T12:14:10.864Z,98080.97
2022-10-02T12:15:31.754Z,98083.83
2022-10-02T12:16:40.379Z,98093.77
2022-10-02T12:17:55.053Z,98116.05
2022-10-02T12:19:06.456Z,98081.70
2022-10-02T12:20:19.647Z,98090.09
2022-10-02T12:21:32.429Z,98090.45
2022-10-02T12:22:59.474Z,98089.75
2022-10-02T12:24:23.045Z,98082.97
2022-10-02T12:25:32.870Z,98086.63
2022-10-02T12:26:47.840Z,98105.11
2022-10-02T12:28:27.339Z,98080.37
2022-10-02T12:29:49.851Z,98092.34
2022-10-02T12:30:55.572Z,98120.28
2022-10-02T12:32:20.894Z,98104.16
2022-10-02T12:33:29.596Z,98104.18
2022-10-02T12:34:41.146Z,98109.98
2022-10-02T12:35:46.748Z,98098.72
2022-10-02T12:36:58.424Z,98110.33
2022-10-02T12:38:22.814Z,98097.53
2022-10-02T12:39:31.789Z,98105.34
2022-10-02T12:40:58.197Z,98095.64
2022-10-02T12:42:29.355Z,98109.14
2022-10-02T12:43:54.634Z,98128.69
2022-10-02T12:45:11.425Z,98121.95
2022-10-02T12:46:46.631Z,98126.18
2022-10-02T12:48:19.882Z,98113.88
2022-10-02T12:49:56.433Z,98108.63
2022-10-02T12:51:21.408Z,98109.14
2022-10-02T12:52:44.276Z,98099.62
2022-10-02T12:54:15.029Z,98113.15
2022-10-02T12:55:54.020Z,98104.15
2022-10-02T12:57:25.821Z,98089.49
2022-10-02T12:59:04.801Z,98099.91
2022-10-02T13:00:16.374Z,98112.81
2022-10-02T13:01:28.065Z,98093.73
2022-10-02T13:03:01.337Z,98087.92
2022-10-02T13:04:22.070Z,98098.22
2022-10-02T13:05:53.604Z,98105.34
2022-10-02T13:07:17.307Z,98118.31
2022-10-02T13:08:40.850Z,98136.55
2022-10-02T13:10:02.043Z,98097.00
2022-10-02T13:11:19.598Z,98109.72
2022-10-02T13:12:48.643Z,98091.98
2022-10-02T13:14:16.329Z,98109.28
2022-10-02T13:15:21.846Z,98138.95
2022-10-02T13:16:53.298Z,98082.63
2022-10-02T13:18:08.256Z,98089.86
2022-10-02T13:19:30.177Z,98084.20
2022-10-02T13:20:41.662Z,98089.40
2022-10-02T13:22:06.005Z,98093.19
2022-10-02T13:23:17.878Z,98085.86
2022-10-02T13:24:54.650Z,98077.33
2022-10-02T13:26:06.123Z,98079.23
2022-10-02T13:27:15.362Z,98084.44
2022-10-02T13:28:46.893Z,98073.16
2022-10-02T13:29:52.420Z,98080.05
2022-10-02T13:31:20.882Z,98111.59
2022-10-02T13:32:42.833Z,98085.23
2022-10-02T13:34:00.841Z,98105.48
2022-10-02T13:35:13.575Z,98089.59
2022-10-02T13:36:34.622Z,98097.64
2022-10-02T13:38:02.483Z,98099.73
2022-10-02T13:39:21.268Z,98109.72
2022-10-02T13:40:38.976Z,98099.20
2022-10-02T13:41:50.843Z,98141.00
2022-10-02T13:43:02.489Z,98089.56
2022-10-02T13:44:11.433Z,98094.61
2022-10-02T13:45:29.618Z,98119.17
2022-10-02T13:46:53.390Z,98100.27
2022-10-02T13:48:02.467Z,98137.30
2022-10-02T13:49:25.124Z,98111.77
2022-10-02T13:50:43.081Z,98100.47
2022-10-02T13:51:51.727Z,98107.58
2022-10-02T13:53:20.306Z,98120.80
2022-10-02T13:54:44.680Z,98102.38
2022-10-02T13:55:56.818Z,98118.76
2022-10-02T13:57:21.282Z,98137.34
2022-10-02T14:00:02.562Z,98095.43
2022-10-02T14:01:30.856Z,98104.46
2022-10-02T14:02:52.582Z,98092.02
2022-10-02T14:04:01.722Z,98099.66
2022-10-02T14:05:24.388Z,98108.68
2022-10-02T14:06:42.762Z,98096.37
2022-10-02T14:07:48.244Z,98109.44
2022-10-02T14:09:09.259Z,98111.75
2022-10-02T14:10:15.049Z,98099.77
2022-10-02T14:11:42.658Z,98139.27
2022-10-02T14:12:48.141Z,98136.58
2022-10-02T14:14:22.722Z,98112.48
2022-10-02T14:15:38.558Z,98129.52
2022-10-02T14:16:56.929Z,98117.67
2022-10-02T14:18:19.164Z,98139.41
2022-10-02T14:19:36.398Z,98130.19
2022-10-02T14:20:48.555Z,98162.41
2022-10-02T14:23:56.542Z,98127.69
2022-10-02T14:25:08.319Z,98154.50
2022-10-02T14:26:17.040Z,98135.80
2022-10-02T14:27:22.522Z,98124.78
2022-10-02T14:28:34.647Z,98138.52
2022-10-02T14:29:49.419Z,98107.33
2022-10-02T14:31:00.753Z,98122.07
2022-10-02T14:32:15.870Z,98139.64
2022-10-02T14:33:54.619Z,98144.95
2022-10-02T14:35:20.134Z,98114.62
2022-10-02T14:36:35.986Z,98114.82
2022-10-02T14:38:13.814Z,98140.07
2022-10-02T14:39:37.511Z,98144.34
2022-10-02T14:40:54.851Z,98143.20
2022-10-02T14:42:16.371Z,98170.52
2022-10-02T14:43:24.030Z,98173.13
2022-10-02T14:44:53.363Z,98156.09
2022-10-02T14:46:15.810Z,98169.50
2022-10-02T14:47:24.270Z,98153.69
2022-10-02T14:48:55.855Z,98161.98
2022-10-02T14:50:20.314Z,98157.83
2022-10-02T14:51:29.752Z,98146.58
2022-10-02T14:52:52.273Z,98187.34
2022-10-02T14:54:07.004Z,98184.25
2022-10-02T14:55:34.039Z,98170.94
2022-10-02T14:56:40.199Z,98189.54
2022-10-02T14:58:11.935Z,98180.40
2022-10-02T14:59:36.217Z,98156.81
2022-10-02T15:01:02.277Z,98174.05
2022-10-02T15:02:12.077Z,98186.83
2022-10-02T15:03:42.222Z,98192.77
2022-10-02T15:05:06.106Z,98199.50
2022-10-02T15:06:29.285Z,98212.72
2022-10-02T15:07:35.523Z,98186.33
2022-10-02T15:08:56.030Z,98185.78
2022-10-02T15:10:20.988Z,98208.67
2022-10-02T15:11:39.243Z,98188.20
2022-10-02T15:13:09.268Z,98187.14
2022-10-02T15:14:18.835Z,98179.64
2022-10-02T15:15:34.081Z,98223.12